[2024-11-30 00:00:00, 2024-11-30 23:59:59] previous next
| time | temperature | air pressure | humidity | solar radiation | wind speed |
|---|---|---|---|---|---|
| 2024-11-30 08:00:31 | -1.8 | 1019.5 | 99.0 | 8.9 | 0.0 |
| 2024-11-30 08:20:31 | -0.2 | 1019.8 | 99.0 | 11.3 | 0.0 |
| 2024-11-30 08:40:31 | 0.4 | 1019.5 | 99.0 | 18.1 | 0.0 |
| 2024-11-30 09:00:31 | 1.7 | 1019.5 | 99.0 | 22.1 | 0.0 |
| 2024-11-30 09:20:31 | 1.9 | 1019.1 | 99.0 | 26.2 | 0.0 |
| 2024-11-30 09:40:31 | 3.6 | 1019.1 | 99.0 | 32.4 | 0.0 |
| 2024-11-30 10:00:31 | 3.6 | 1019.5 | 99.0 | 32.9 | 0.0 |
| 2024-11-30 10:20:31 | 3.7 | 1019.5 | 99.0 | 38.8 | 0.0 |
| 2024-11-30 10:40:31 | 5.3 | 1019.1 | 99.0 | 37.6 | 0.1 |
| 2024-11-30 11:00:29 | 4.4 | 1019.5 | 98.0 | 38.3 | 0.1 |
| 2024-11-30 11:20:31 | 5.8 | 1019.5 | 96.0 | 99.5 | 0.4 |
| 2024-11-30 11:40:31 | 6.4 | 1019.5 | 95.0 | 149.4 | 0.6 |
| 2024-11-30 12:00:31 | 7.3 | 1019.5 | 86.0 | 177.3 | 0.0 |
| 2024-11-30 12:20:31 | 9.7 | 1019.1 | 71.0 | 203.6 | 0.4 |
| 2024-11-30 12:40:30 | 10.4 | 1019.5 | 67.0 | 203.8 | 0.0 |
| 2024-11-30 13:00:30 | 10.9 | 1019.5 | 66.0 | 202.0 | 0.1 |
| 2024-11-30 13:20:28 | 10.7 | 1018.8 | 66.0 | 190.2 | 0.0 |
| 2024-11-30 13:40:29 | 10.9 | 1018.5 | 66.0 | 172.2 | 1.3 |
| 2024-11-30 14:00:31 | 11.4 | 1018.5 | 64.0 | 152.0 | 0.0 |
| 2024-11-30 14:20:31 | 10.8 | 1018.1 | 65.0 | 133.1 | 0.7 |
| 2024-11-30 14:40:48 | 10.2 | 1018.5 | 66.0 | 82.7 | 0.0 |
CSV export: /station/IWELLEN5/data?period=20241130T000000/20241130T235959&format=csv&tz=GMT